createdAt,value
2019-04-23T00:00:07.549Z,49.50
2019-04-23T00:02:35.426Z,49.20
2019-04-23T00:05:15.578Z,49.00
2019-04-23T00:12:53.106Z,48.60
2019-04-23T00:15:13.537Z,48.50
2019-04-23T00:20:14.469Z,48.10
2019-04-23T00:22:53.296Z,48.00
2019-04-23T00:30:44.051Z,47.50
2019-04-23T00:33:12.379Z,47.40
2019-04-23T00:35:38.856Z,47.10
2019-04-23T00:38:13.961Z,47.30
2019-04-23T00:40:39.019Z,47.20
2019-04-23T00:43:13.487Z,47.10
2019-04-23T00:45:47.105Z,47.00
2019-04-23T00:48:15.056Z,46.80
2019-04-23T00:50:52.988Z,46.70
2019-04-23T00:53:12.593Z,46.80
2019-04-23T01:00:51.405Z,46.90
2019-04-23T01:05:50.264Z,47.20
2019-04-23T01:08:22.068Z,47.20
2019-04-23T01:11:03.182Z,47.30
2019-04-23T01:13:38.722Z,47.30
2019-04-23T01:16:00.764Z,47.30
2019-04-23T01:18:39.589Z,47.50
2019-04-23T01:20:53.548Z,47.60
2019-04-23T01:23:13.803Z,47.70
2019-04-23T01:25:54.599Z,47.70
2019-04-23T01:28:45.060Z,47.70
2019-04-23T01:31:16.544Z,47.80
2019-04-23T01:38:45.595Z,47.90
2019-04-23T01:41:14.492Z,47.80
2019-04-23T01:43:42.833Z,47.90
2019-04-23T01:46:14.004Z,48.10
2019-04-23T01:48:48.248Z,48.30
2019-04-23T01:51:06.651Z,48.30
2019-04-23T01:53:45.692Z,48.40
2019-04-23T01:56:20.409Z,48.50
2019-04-23T01:58:43.977Z,48.50
2019-04-23T02:01:16.115Z,48.60
2019-04-23T02:03:48.536Z,48.60
2019-04-23T02:08:50.469Z,48.60
2019-04-23T02:11:11.464Z,48.80
2019-04-23T02:13:49.120Z,48.50
2019-04-23T02:16:21.439Z,49.20
2019-04-23T02:18:52.782Z,48.40
2019-04-23T02:21:43.973Z,48.40
2019-04-23T02:24:03.652Z,48.40
2019-04-23T02:26:39.922Z,48.30
2019-04-23T02:29:15.924Z,48.10
2019-04-23T02:34:43.314Z,47.90
2019-04-23T02:36:55.058Z,47.80
2019-04-23T02:39:22.409Z,47.80
2019-04-23T02:42:01.657Z,47.90
2019-04-23T02:47:06.233Z,48.00
2019-04-23T02:49:26.989Z,48.10
2019-04-23T02:51:59.349Z,48.30
2019-04-23T02:54:37.564Z,48.30
2019-04-23T02:57:05.705Z,48.30
2019-04-23T02:59:53.807Z,48.20
2019-04-23T03:02:17.455Z,48.50
2019-04-23T03:04:35.674Z,48.40
2019-04-23T03:07:01.120Z,48.30
2019-04-23T03:09:43.238Z,48.20
2019-04-23T03:12:07.822Z,48.20
2019-04-23T03:14:32.994Z,48.00
2019-04-23T03:17:03.000Z,47.90
2019-04-23T03:22:35.118Z,47.80
2019-04-23T03:25:07.115Z,47.80
2019-04-23T03:27:31.887Z,47.80
2019-04-23T03:30:06.804Z,47.90
2019-04-23T03:37:35.590Z,47.80
2019-04-23T03:42:37.251Z,47.70
2019-04-23T03:45:14.015Z,47.80
2019-04-23T03:47:32.184Z,47.90
2019-04-23T03:50:09.321Z,48.60
2019-04-23T03:52:36.998Z,47.70
2019-04-23T03:55:08.154Z,47.60
2019-04-23T04:05:01.020Z,47.40
2019-04-23T04:07:55.860Z,47.50
2019-04-23T04:10:00.024Z,47.30
2019-04-23T04:12:34.834Z,47.30
2019-04-23T04:18:01.205Z,47.80
2019-04-23T04:20:15.242Z,47.10
2019-04-23T04:23:00.367Z,46.80
2019-04-23T04:25:30.548Z,46.60
2019-04-23T04:27:54.488Z,46.40
2019-04-23T04:32:59.063Z,46.00
2019-04-23T04:37:56.351Z,45.80
2019-04-23T04:42:55.773Z,45.50
2019-04-23T04:45:30.355Z,45.30
2019-04-23T04:47:44.762Z,45.00
2019-04-23T04:50:14.973Z,44.70
2019-04-23T04:53:10.270Z,44.20
2019-04-23T04:55:21.463Z,43.90
2019-04-23T04:57:52.637Z,43.90
2019-04-23T05:00:39.703Z,44.00
2019-04-23T05:07:54.823Z,42.30
2019-04-23T05:10:36.290Z,41.60
2019-04-23T05:13:11.739Z,40.20
2019-04-23T05:15:23.238Z,39.30
2019-04-23T05:23:28.429Z,36.00
2019-04-23T05:25:44.723Z,34.80
2019-04-23T05:28:12.633Z,34.40
2019-04-23T05:30:46.407Z,33.60
2019-04-23T05:33:18.396Z,33.80
2019-04-23T05:36:06.216Z,32.00
2019-04-23T05:38:29.111Z,31.70
2019-04-23T05:40:53.778Z,33.10
2019-04-23T05:43:38.559Z,30.30
2019-04-23T05:45:53.109Z,30.00
2019-04-23T05:48:17.510Z,29.50
2019-04-23T05:50:59.167Z,29.30
2019-04-23T05:53:18.498Z,29.80
2019-04-23T05:55:51.389Z,28.70
2019-04-23T05:58:23.823Z,28.20
2019-04-23T06:00:58.096Z,27.50
2019-04-23T06:03:26.128Z,26.80
2019-04-23T06:05:54.243Z,26.60
2019-04-23T06:08:39.045Z,26.90
2019-04-23T06:10:55.546Z,26.70
2019-04-23T06:13:26.420Z,26.50
2019-04-23T06:15:53.612Z,26.00
2019-04-23T06:18:33.166Z,25.80
2019-04-23T06:26:10.083Z,25.30
2019-04-23T06:28:26.971Z,25.10
2019-04-23T06:31:02.719Z,24.60
2019-04-23T06:35:58.886Z,23.50
2019-04-23T06:38:41.043Z,23.20
2019-04-23T06:41:00.808Z,23.30
2019-04-23T06:43:34.981Z,23.20
2019-04-23T06:45:59.634Z,23.00
2019-04-23T06:51:09.431Z,22.90
2019-04-23T06:53:28.637Z,22.00
2019-04-23T06:56:03.860Z,22.00
2019-04-23T07:03:38.366Z,21.00
2019-04-23T07:11:28.639Z,20.60
2019-04-23T07:13:54.749Z,20.70
2019-04-23T07:16:10.987Z,19.70
2019-04-23T07:18:54.511Z,19.50
2019-04-23T07:23:44.921Z,19.50
2019-04-23T07:26:26.037Z,19.30
2019-04-23T07:28:49.871Z,19.20
2019-04-23T07:33:52.944Z,19.30
2019-04-23T07:36:17.140Z,19.90
2019-04-23T07:38:54.654Z,19.00
2019-04-23T07:46:59.527Z,18.80
2019-04-23T07:49:10.145Z,19.00
2019-04-23T07:51:46.765Z,19.10
2019-04-23T07:54:18.946Z,18.60
2019-04-23T07:56:42.209Z,18.80
2019-04-23T07:59:22.813Z,18.00
2019-04-23T08:01:39.186Z,17.70
2019-04-23T08:04:16.917Z,17.50
2019-04-23T08:06:49.077Z,17.60
2019-04-23T08:09:17.360Z,17.50
2019-04-23T08:12:07.878Z,17.60
2019-04-23T08:14:07.908Z,18.20
2019-04-23T08:16:40.147Z,17.60
2019-04-23T08:19:14.263Z,17.10
2019-04-23T08:21:45.978Z,17.20
2019-04-23T08:24:38.840Z,17.50
2019-04-23T08:27:04.282Z,17.50
2019-04-23T08:29:30.292Z,17.40
2019-04-23T08:37:09.358Z,17.10
2019-04-23T08:42:28.795Z,16.40
2019-04-23T08:44:47.082Z,16.50
2019-04-23T08:57:14.400Z,15.70
2019-04-23T08:59:47.360Z,16.10
2019-04-23T09:02:30.892Z,16.00
2019-04-23T09:04:54.915Z,15.80
2019-04-23T09:07:28.151Z,15.50
2019-04-23T09:09:50.969Z,15.20
2019-04-23T09:14:43.285Z,15.50
2019-04-23T09:17:37.559Z,15.40
2019-04-23T09:20:06.987Z,14.40
2019-04-23T09:22:25.124Z,15.00
2019-04-23T09:24:47.250Z,14.70
2019-04-23T09:27:22.582Z,14.70
2019-04-23T09:32:25.954Z,15.90
2019-04-23T09:35:05.914Z,15.90
2019-04-23T09:40:41.511Z,16.60
2019-04-23T09:43:00.676Z,16.70
2019-04-23T09:55:48.698Z,20.60
2019-04-23T09:58:08.165Z,20.60
2019-04-23T10:00:40.732Z,20.70
2019-04-23T10:03:03.604Z,20.90
2019-04-23T10:05:29.179Z,21.10
2019-04-23T10:07:59.858Z,21.70
2019-04-23T10:10:18.564Z,22.20
2019-04-23T10:12:50.190Z,22.00
2019-04-23T10:15:25.045Z,22.30
2019-04-23T10:17:50.018Z,22.40
2019-04-23T10:20:20.469Z,22.60
2019-04-23T10:22:50.481Z,22.50
2019-04-23T10:25:21.064Z,22.40
2019-04-23T10:27:55.059Z,22.40
2019-04-23T10:30:21.725Z,22.50
2019-04-23T10:32:51.649Z,22.50
2019-04-23T10:35:30.333Z,22.70
2019-04-23T10:37:59.665Z,22.60
2019-04-23T10:40:31.437Z,22.90
2019-04-23T10:42:54.352Z,23.40
2019-04-23T10:45:41.439Z,24.10
2019-04-23T10:48:40.245Z,22.80
2019-04-23T10:51:18.607Z,22.90
2019-04-23T10:53:56.378Z,23.10
2019-04-23T10:56:37.120Z,23.50
2019-04-23T10:58:54.568Z,23.40
2019-04-23T11:01:31.903Z,23.00
2019-04-23T11:04:10.551Z,23.20
2019-04-23T11:06:39.814Z,23.40
2019-04-23T11:09:11.413Z,23.70
2019-04-23T11:11:36.127Z,24.00
2019-04-23T11:14:16.324Z,23.80
2019-04-23T11:16:50.785Z,23.50
2019-04-23T11:19:10.546Z,23.60
2019-04-23T11:21:45.810Z,23.70
2019-04-23T11:24:20.702Z,23.60
2019-04-23T11:26:42.449Z,23.50
2019-04-23T11:29:16.819Z,23.70
2019-04-23T11:31:43.059Z,23.60
2019-04-23T11:34:18.121Z,23.50
2019-04-23T11:39:05.462Z,24.10
2019-04-23T11:44:23.339Z,23.90
2019-04-23T11:49:34.243Z,24.20
2019-04-23T11:51:56.387Z,24.30
2019-04-23T11:54:21.372Z,24.00
2019-04-23T11:59:25.884Z,24.10
2019-04-23T12:02:00.807Z,24.20
2019-04-23T12:04:48.626Z,24.50
2019-04-23T12:07:14.114Z,24.80
2019-04-23T12:09:48.774Z,24.80
2019-04-23T12:12:16.870Z,24.40
2019-04-23T12:17:26.368Z,24.60
2019-04-23T12:19:55.805Z,24.70
2019-04-23T12:27:31.711Z,25.10
2019-04-23T12:32:43.286Z,25.00
2019-04-23T12:35:03.743Z,25.20
2019-04-23T12:42:59.025Z,25.20
2019-04-23T12:45:29.123Z,25.10
2019-04-23T12:47:56.391Z,25.10
2019-04-23T12:53:00.663Z,25.40
2019-04-23T12:55:34.204Z,25.00
2019-04-23T12:58:01.911Z,24.90
2019-04-23T13:00:23.312Z,25.10
2019-04-23T13:05:23.146Z,25.40
2019-04-23T13:08:08.649Z,25.40
2019-04-23T13:10:35.637Z,25.40
2019-04-23T13:15:22.654Z,25.50
2019-04-23T13:20:23.662Z,25.80
2019-04-23T13:25:33.429Z,25.20
2019-04-23T13:30:39.000Z,24.80
2019-04-23T13:33:08.340Z,24.80
2019-04-23T13:38:08.442Z,25.10
2019-04-23T13:40:46.361Z,25.20
2019-04-23T13:43:07.985Z,25.00
2019-04-23T13:48:06.931Z,24.90
2019-04-23T13:50:49.934Z,24.90
2019-04-23T13:53:29.137Z,24.90
2019-04-23T13:55:30.055Z,24.70
2019-04-23T14:00:47.300Z,24.60
2019-04-23T14:03:04.081Z,24.50
2019-04-23T14:05:49.599Z,24.40
2019-04-23T14:08:24.635Z,24.60
2019-04-23T14:11:02.262Z,24.60
2019-04-23T14:18:43.170Z,24.80
2019-04-23T14:20:53.202Z,25.00
2019-04-23T14:23:38.509Z,25.00
2019-04-23T14:28:30.764Z,24.90
2019-04-23T14:35:49.834Z,24.70
2019-04-23T14:41:06.140Z,24.80
2019-04-23T14:46:27.213Z,24.80
2019-04-23T14:48:27.885Z,25.40
2019-04-23T14:51:11.401Z,24.60
2019-04-23T14:58:42.844Z,24.70
2019-04-23T15:01:22.004Z,24.80
2019-04-23T15:03:42.492Z,24.50
2019-04-23T15:06:26.275Z,24.50
2019-04-23T15:08:54.734Z,24.70
2019-04-23T15:11:20.989Z,24.70
2019-04-23T15:13:52.264Z,24.90
2019-04-23T15:18:52.537Z,25.10
2019-04-23T15:21:47.361Z,24.90
2019-04-23T15:28:30.378Z,25.10
2019-04-23T15:31:26.563Z,25.10
2019-04-23T15:36:32.676Z,25.10
2019-04-23T15:41:23.673Z,25.40
2019-04-23T15:44:00.487Z,25.60
2019-04-23T15:46:26.885Z,25.70
2019-04-23T15:49:02.576Z,26.40
2019-04-23T15:53:58.297Z,25.40
2019-04-23T16:01:29.366Z,25.40
2019-04-23T16:03:28.973Z,25.40
2019-04-23T16:05:57.441Z,25.30
2019-04-23T16:11:39.278Z,25.40
2019-04-23T16:14:11.342Z,25.90
2019-04-23T16:16:31.579Z,25.40
2019-04-23T16:19:09.575Z,25.50
2019-04-23T16:21:54.709Z,25.60
2019-04-23T16:24:05.991Z,25.60
2019-04-23T16:26:39.226Z,25.60
2019-04-23T16:29:27.432Z,25.60
2019-04-23T16:34:29.219Z,25.60
2019-04-23T16:36:55.554Z,25.70
2019-04-23T16:39:24.194Z,25.80
2019-04-23T16:42:03.944Z,25.70
2019-04-23T16:44:29.462Z,25.60
2019-04-23T16:47:04.662Z,25.60
2019-04-23T16:49:36.274Z,25.70
2019-04-23T16:52:02.054Z,25.80
2019-04-23T16:54:33.188Z,25.80
2019-04-23T17:00:02.941Z,25.90
2019-04-23T17:02:12.076Z,26.00
2019-04-23T17:04:30.764Z,26.10
2019-04-23T17:07:02.461Z,26.30
2019-04-23T17:09:44.712Z,26.40
2019-04-23T17:14:35.800Z,26.70
2019-04-23T17:17:02.586Z,26.70
2019-04-23T17:19:39.593Z,27.00
2019-04-23T17:22:06.192Z,27.00
2019-04-23T17:24:30.110Z,27.20
2019-04-23T17:27:25.550Z,27.50
2019-04-23T17:32:10.065Z,27.60
2019-04-23T17:37:35.134Z,27.50
2019-04-23T17:40:08.548Z,27.70
2019-04-23T17:42:43.868Z,27.60
2019-04-23T17:48:03.774Z,27.80
2019-04-23T17:50:26.904Z,28.00
2019-04-23T17:52:59.070Z,27.90
2019-04-23T17:55:22.330Z,27.90
2019-04-23T17:57:59.001Z,27.90
2019-04-23T18:03:01.174Z,28.10
2019-04-23T18:05:40.721Z,28.20
2019-04-23T18:13:17.247Z,28.40
2019-04-23T18:15:25.302Z,28.40
2019-04-23T18:20:44.899Z,28.50
2019-04-23T18:28:11.993Z,28.60
2019-04-23T18:31:00.143Z,28.80
2019-04-23T18:36:06.135Z,28.80
2019-04-23T18:38:39.965Z,29.00
2019-04-23T18:43:35.695Z,29.00
2019-04-23T18:53:48.596Z,29.10
2019-04-23T18:56:21.574Z,29.10
2019-04-23T18:59:02.807Z,29.20
2019-04-23T19:01:22.856Z,29.30
2019-04-23T19:06:34.386Z,29.40
2019-04-23T19:09:23.409Z,29.50
2019-04-23T19:17:38.586Z,29.40
2019-04-23T19:19:44.229Z,29.50
2019-04-23T19:24:37.394Z,29.50
2019-04-23T19:29:46.196Z,29.70
2019-04-23T19:32:29.597Z,29.70
2019-04-23T19:34:40.671Z,29.70
2019-04-23T19:37:34.682Z,29.80
2019-04-23T19:39:43.221Z,29.80
2019-04-23T19:42:26.651Z,30.00
2019-04-23T19:44:45.561Z,30.00
2019-04-23T19:47:19.247Z,30.10
2019-04-23T19:49:45.288Z,30.20
2019-04-23T19:52:10.919Z,30.20
2019-04-23T19:54:51.818Z,30.40
2019-04-23T19:57:19.581Z,30.20
2019-04-23T20:04:46.126Z,30.80
2019-04-23T20:07:24.100Z,30.70
2019-04-23T20:12:15.627Z,31.20
2019-04-23T20:14:52.327Z,31.30
2019-04-23T20:19:50.787Z,31.20
2019-04-23T20:22:27.253Z,31.60
2019-04-23T20:25:37.928Z,31.90
2019-04-23T20:27:28.758Z,32.00
2019-04-23T20:40:16.671Z,33.00
2019-04-23T20:42:49.236Z,33.30
2019-04-23T20:45:17.019Z,33.20
2019-04-23T20:48:04.806Z,33.50
2019-04-23T20:50:10.150Z,33.40
2019-04-23T20:52:48.042Z,33.60
2019-04-23T20:55:17.307Z,33.60
2019-04-23T21:10:45.087Z,34.10
2019-04-23T21:15:35.870Z,34.60
2019-04-23T21:18:06.484Z,34.60
2019-04-23T21:23:09.404Z,35.00
2019-04-23T21:25:43.149Z,34.80
2019-04-23T21:38:56.705Z,35.80
2019-04-23T21:44:05.116Z,35.90
2019-04-23T21:46:22.647Z,36.00
2019-04-23T21:49:01.729Z,36.30
2019-04-23T21:53:46.375Z,36.40
2019-04-23T21:56:17.058Z,36.50
2019-04-23T21:58:54.846Z,36.70
2019-04-23T22:01:32.084Z,36.80
2019-04-23T22:04:09.087Z,36.90
2019-04-23T22:16:35.639Z,37.10
2019-04-23T22:19:10.676Z,37.30
2019-04-23T22:29:14.602Z,38.00
2019-04-23T22:31:37.583Z,38.10
2019-04-23T22:36:39.457Z,38.00
2019-04-23T22:39:07.837Z,38.20
2019-04-23T22:41:36.277Z,38.30
2019-04-23T22:46:48.161Z,38.40
2019-04-23T22:49:29.186Z,38.60
2019-04-23T22:54:11.845Z,38.80
2019-04-23T22:56:53.643Z,38.70
2019-04-23T22:59:27.981Z,38.80
2019-04-23T23:04:20.602Z,39.20
2019-04-23T23:11:54.176Z,39.40
2019-04-23T23:14:24.183Z,39.70
2019-04-23T23:16:54.834Z,39.50
2019-04-23T23:22:02.164Z,39.90
2019-04-23T23:24:21.642Z,40.20
2019-04-23T23:29:21.935Z,40.00
2019-04-23T23:34:28.181Z,40.10
2019-04-23T23:37:02.200Z,40.40
2019-04-23T23:39:28.839Z,40.50
2019-04-23T23:41:59.318Z,40.90
2019-04-23T23:47:03.059Z,41.00
2019-04-23T23:49:48.431Z,40.90
2019-04-23T23:51:57.934Z,41.10
2019-04-23T23:54:27.044Z,41.00
2019-04-23T23:57:11.266Z,41.40
2019-04-23T23:59:35.071Z,41.90
